Time;durP1;ratioP1;P1;durP2;ratioP2;P2;SDS_P1;SDS_P2;PMS_P1;PMS_P2;Temp;Humidity;BMP_temperature;BMP_pressure;BME280_temperature;BME280_humidity;BME280_pressure;Samples;Min_cycle;Max_cycle;Signal;HPM_P1;HPM_P2
2022/07/02 00:01:51;;;;;;;7.60;2.92;;;15.10;99.90;;;;;;5112692;28;20039;-47
2022/07/02 00:04:20;;;;;;;6.85;2.75;;;15.10;99.90;;;;;;5109867;27;20058;-46
2022/07/02 00:06:50;;;;;;;8.02;2.70;;;15.10;99.90;;;;;;5112686;28;20039;-48
2022/07/02 00:09:15;;;;;;;7.80;3.03;;;15.00;99.90;;;;;;5093805;28;20043;-47
2022/07/02 00:11:42;;;;;;;6.05;2.92;;;15.00;99.90;;;;;;5111406;28;20043;-48
2022/07/02 00:14:08;;;;;;;10.10;3.35;;;15.10;99.90;;;;;;5110004;28;20102;-46
2022/07/02 00:16:38;;;;;;;8.18;3.20;;;15.00;99.90;;;;;;5111971;28;20031;-49
2022/07/02 00:19:04;;;;;;;7.43;2.90;;;14.90;99.90;;;;;;5112425;27;20043;-50
2022/07/02 00:21:30;;;;;;;8.07;3.10;;;14.90;99.90;;;;;;5112279;28;20885;-45
2022/07/02 00:23:56;;;;;;;5.25;3.03;;;14.80;99.90;;;;;;5112410;28;20115;-46
2022/07/02 00:26:31;;;;;;;6.75;3.40;;;14.80;99.90;;;;;;5112303;27;20035;-46
2022/07/02 00:29:16;;;;;;;7.78;3.78;;;14.80;99.90;;;;;;5112293;28;20040;-49
2022/07/02 00:31:42;;;;;;;9.38;3.30;;;14.80;99.90;;;;;;5112224;28;20078;-45
2022/07/02 00:34:08;;;;;;;7.03;3.20;;;14.80;99.90;;;;;;5110908;28;20043;-45
2022/07/02 00:36:34;;;;;;;7.18;3.22;;;14.80;99.90;;;;;;5112272;28;20036;-47
2022/07/02 00:39:00;;;;;;;8.20;3.67;;;14.80;99.90;;;;;;5093240;28;20543;-50
2022/07/02 00:41:28;;;;;;;8.80;3.50;;;14.80;99.90;;;;;;5112343;27;20040;-47
2022/07/02 00:43:54;;;;;;;7.35;3.40;;;14.80;99.90;;;;;;5111277;27;20046;-47
2022/07/02 00:46:21;;;;;;;5.78;3.30;;;14.80;99.90;;;;;;5112017;28;20032;-47
2022/07/02 00:48:47;;;;;;;5.78;3.38;;;14.80;99.90;;;;;;5112071;28;20034;-50
2022/07/02 00:51:12;;;;;;;7.00;3.35;;;14.80;99.90;;;;;;5112040;28;20436;-47
2022/07/02 00:53:38;;;;;;;6.50;3.53;;;14.80;99.90;;;;;;5110597;28;20088;-48
2022/07/02 00:56:04;;;;;;;7.90;3.50;;;14.70;99.90;;;;;;5111840;28;20036;-45
2022/07/02 00:58:32;;;;;;;5.95;3.35;;;14.70;99.90;;;;;;5111533;28;20047;-48
2022/07/02 01:00:58;;;;;;;7.93;3.50;;;14.70;99.90;;;;;;5111389;28;20032;-45
2022/07/02 01:03:26;;;;;;;6.03;3.60;;;14.70;99.90;;;;;;5111501;28;20056;-47
2022/07/02 01:05:52;;;;;;;8.57;3.80;;;14.60;99.90;;;;;;5111879;27;20079;-48
2022/07/02 01:11:06;;;;;;;9.88;4.50;;;14.60;99.90;;;;;;5111501;28;20052;-46
2022/07/02 01:13:33;;;;;;;6.95;3.97;;;14.60;99.90;;;;;;5111415;28;20383;-44
2022/07/02 01:16:00;;;;;;;8.93;4.18;;;14.50;99.90;;;;;;5111254;28;20040;-45
2022/07/02 01:18:26;;;;;;;8.57;4.25;;;14.50;99.90;;;;;;5110766;27;20083;-45
2022/07/02 01:20:51;;;;;;;10.23;4.18;;;14.50;99.90;;;;;;5111288;28;20069;-47
2022/07/02 01:23:17;;;;;;;10.82;4.45;;;14.40;99.90;;;;;;5110713;28;20036;-47
2022/07/02 01:25:53;;;;;;;6.13;4.07;;;14.40;99.90;;;;;;5111268;28;20039;-44
2022/07/02 01:28:19;;;;;;;10.65;4.80;;;14.40;99.90;;;;;;5111072;27;20475;-45
2022/07/02 01:30:46;;;;;;;7.80;4.50;;;14.40;99.90;;;;;;5110964;28;20036;-44
2022/07/02 01:33:12;;;;;;;8.45;4.63;;;14.30;99.90;;;;;;5111137;28;20131;-47
2022/07/02 01:35:38;;;;;;;9.95;4.47;;;14.30;99.90;;;;;;5111086;28;20592;-45
2022/07/02 01:38:03;;;;;;;7.40;4.75;;;14.20;99.90;;;;;;5110676;28;20509;-48
2022/07/02 01:40:29;;;;;;;8.45;4.90;;;14.20;99.90;;;;;;5111143;28;20103;-45
2022/07/02 01:42:55;;;;;;;11.15;4.97;;;14.10;99.90;;;;;;5110903;28;21422;-47
2022/07/02 01:45:21;;;;;;;8.00;5.18;;;14.10;99.90;;;;;;5108782;28;20130;-48
2022/07/02 01:47:47;;;;;;;9.07;4.70;;;14.10;99.90;;;;;;5110958;28;20094;-47
2022/07/02 01:50:12;;;;;;;8.25;5.07;;;14.10;99.90;;;;;;5110620;28;20118;-48
2022/07/02 01:52:38;;;;;;;9.80;5.47;;;14.00;99.90;;;;;;5110449;28;20604;-45
2022/07/02 01:55:04;;;;;;;8.88;4.80;;;14.00;99.90;;;;;;5110858;28;20040;-45
2022/07/02 01:57:33;;;;;;;9.75;5.53;;;14.00;99.90;;;;;;5110692;28;20039;-47
2022/07/02 01:59:59;;;;;;;11.98;5.18;;;14.00;99.90;;;;;;5110616;28;20044;-47
2022/07/02 02:02:25;;;;;;;10.63;5.15;;;13.90;99.90;;;;;;5110614;28;20402;-45
2022/07/02 02:04:51;;;;;;;9.60;5.40;;;13.90;99.90;;;;;;5110449;28;20499;-45
2022/07/02 02:07:17;;;;;;;10.35;5.00;;;13.90;99.90;;;;;;5110783;28;20088;-45
2022/07/02 02:09:42;;;;;;;9.50;5.32;;;13.90;99.90;;;;;;5110482;28;20036;-45
2022/07/02 02:12:08;;;;;;;9.05;5.20;;;13.90;99.90;;;;;;5108687;28;20397;-47
2022/07/02 02:14:34;;;;;;;9.63;5.07;;;13.80;99.90;;;;;;5109894;28;20096;-46
2022/07/02 02:17:00;;;;;;;9.35;5.43;;;13.90;99.90;;;;;;5110734;28;20114;-46
2022/07/02 02:19:26;;;;;;;11.75;5.18;;;13.80;99.90;;;;;;5110265;28;20135;-47
2022/07/02 02:21:51;;;;;;;9.73;5.20;;;13.80;99.90;;;;;;5108929;28;20032;-48
2022/07/02 02:24:17;;;;;;;9.38;5.75;;;13.70;99.90;;;;;;5110116;28;20374;-45
2022/07/02 02:26:43;;;;;;;10.23;5.80;;;13.70;99.90;;;;;;5110302;28;20044;-50
2022/07/02 02:29:09;;;;;;;11.40;5.72;;;13.70;99.90;;;;;;5110847;28;20047;-47
2022/07/02 02:31:34;;;;;;;11.65;5.72;;;13.70;99.90;;;;;;5110236;28;20043;-47
2022/07/02 02:34:00;;;;;;;9.85;5.57;;;13.70;99.90;;;;;;5094217;28;20062;-47
2022/07/02 02:36:26;;;;;;;11.00;5.88;;;13.70;99.90;;;;;;5114380;28;20398;-44
2022/07/02 02:38:52;;;;;;;8.43;5.40;;;13.60;99.90;;;;;;5114165;28;20128;-47
2022/07/02 02:41:17;;;;;;;8.75;5.68;;;13.60;99.90;;;;;;5114581;28;20431;-49
2022/07/02 02:43:43;;;;;;;10.30;5.03;;;13.60;99.90;;;;;;5114411;28;20433;-45
2022/07/02 02:46:09;;;;;;;8.80;5.43;;;13.60;99.90;;;;;;5113865;28;20043;-45
2022/07/02 02:48:35;;;;;;;8.20;5.38;;;13.60;99.90;;;;;;5114284;27;20027;-46
2022/07/02 02:51:02;;;;;;;7.88;5.68;;;13.60;99.90;;;;;;5114352;28;20032;-47
2022/07/02 02:53:28;;;;;;;9.52;6.15;;;13.50;99.90;;;;;;5114218;28;20036;-46
2022/07/02 02:55:53;;;;;;;11.45;6.50;;;13.50;99.90;;;;;;5114239;28;20048;-46
2022/07/02 02:58:19;;;;;;;11.23;6.30;;;13.50;99.90;;;;;;5114130;28;20035;-46
2022/07/02 03:00:45;;;;;;;7.28;5.43;;;13.50;99.90;;;;;;5114040;28;20035;-46
2022/07/02 03:03:11;;;;;;;13.27;6.38;;;13.40;99.90;;;;;;5113527;28;20032;-48
2022/07/02 03:05:37;;;;;;;7.22;5.80;;;13.40;99.90;;;;;;5113688;28;20043;-46
2022/07/02 03:08:02;;;;;;;9.82;6.13;;;13.40;99.90;;;;;;5113895;27;20101;-48
2022/07/02 03:10:28;;;;;;;8.98;6.30;;;13.40;99.90;;;;;;5113882;28;20058;-49
2022/07/02 03:12:54;;;;;;;7.22;5.50;;;13.30;99.90;;;;;;5095210;28;20466;-48
2022/07/02 03:15:19;;;;;;;7.95;5.70;;;13.30;99.90;;;;;;5113028;28;20035;-47
2022/07/02 03:17:45;;;;;;;9.73;6.22;;;13.30;99.90;;;;;;5113299;28;20043;-47
2022/07/02 03:20:11;;;;;;;12.60;6.53;;;13.20;99.90;;;;;;5112257;28;20067;-48
2022/07/02 03:22:37;;;;;;;10.10;6.05;;;13.30;99.90;;;;;;5113593;28;20039;-44
2022/07/02 03:25:03;;;;;;;7.53;5.45;;;13.20;99.90;;;;;;5113703;28;20070;-44
2022/07/02 03:27:30;;;;;;;8.55;6.10;;;13.20;99.90;;;;;;5113533;28;20040;-47
2022/07/02 03:29:56;;;;;;;7.45;5.90;;;13.10;99.90;;;;;;5112376;28;20061;-45
2022/07/02 03:32:25;;;;;;;8.63;6.25;;;13.20;99.90;;;;;;5113120;28;20513;-45
2022/07/02 03:34:52;;;;;;;7.80;6.45;;;13.10;99.90;;;;;;5113197;28;20043;-45
2022/07/02 03:37:18;;;;;;;7.50;6.03;;;13.10;99.90;;;;;;5113040;28;20043;-45
2022/07/02 03:39:44;;;;;;;9.15;6.80;;;13.10;99.90;;;;;;5112935;28;20071;-44
2022/07/02 03:42:09;;;;;;;10.25;6.57;;;13.00;99.90;;;;;;5112970;28;20039;-44
2022/07/02 03:44:35;;;;;;;10.40;7.30;;;13.10;99.90;;;;;;5111396;28;20055;-47
2022/07/02 03:47:01;;;;;;;10.02;6.85;;;13.00;99.90;;;;;;5113257;28;20038;-50
2022/07/02 03:49:27;;;;;;;9.07;6.80;;;13.00;99.90;;;;;;5112825;28;20035;-45
2022/07/02 03:51:52;;;;;;;8.23;6.60;;;13.00;99.90;;;;;;5113093;28;20086;-47
2022/07/02 03:54:18;;;;;;;11.30;6.82;;;13.00;99.90;;;;;;5112700;28;20048;-45
2022/07/02 03:56:44;;;;;;;8.65;5.97;;;13.00;99.90;;;;;;5113027;28;20054;-46
2022/07/02 03:59:09;;;;;;;9.00;6.75;;;12.90;99.90;;;;;;5112808;28;20036;-47
2022/07/02 04:01:35;;;;;;;9.63;6.60;;;13.00;99.90;;;;;;5113120;28;20118;-48
2022/07/02 04:04:01;;;;;;;8.68;6.30;;;13.00;99.90;;;;;;5112541;27;20221;-48
2022/07/02 04:06:26;;;;;;;10.25;6.55;;;13.00;99.90;;;;;;5112772;27;20074;-44
2022/07/02 04:08:52;;;;;;;7.85;6.38;;;13.00;99.90;;;;;;5112312;28;20398;-45
2022/07/02 04:11:17;;;;;;;9.23;6.40;;;13.00;99.90;;;;;;5112396;28;20036;-47
2022/07/02 04:13:43;;;;;;;10.23;6.63;;;13.00;99.90;;;;;;5112798;28;20043;-47
2022/07/02 04:16:09;;;;;;;9.35;6.55;;;13.00;99.90;;;;;;5112660;28;20839;-43
2022/07/02 04:18:34;;;;;;;8.02;6.10;;;13.10;99.90;;;;;;5112427;28;20089;-44
2022/07/02 04:21:01;;;;;;;8.13;6.68;;;13.10;99.90;;;;;;5112737;28;20039;-44
2022/07/02 04:23:26;;;;;;;9.30;6.35;;;13.20;99.90;;;;;;5112488;27;20035;-44
2022/07/02 04:25:52;;;;;;;7.93;5.82;;;13.20;99.90;;;;;;5112500;27;20164;-45
2022/07/02 04:28:18;;;;;;;8.40;5.97;;;13.30;99.90;;;;;;5112048;28;20040;-46
2022/07/02 04:30:43;;;;;;;7.90;6.10;;;13.20;99.90;;;;;;5112436;28;20039;-45
2022/07/02 04:33:09;;;;;;;9.13;5.80;;;13.40;99.90;;;;;;5112203;28;20035;-46
2022/07/02 04:35:35;;;;;;;7.75;6.00;;;13.30;99.90;;;;;;5112636;28;20878;-45
2022/07/02 04:38:00;;;;;;;8.40;5.72;;;13.30;99.90;;;;;;5111994;28;20095;-45
2022/07/02 04:40:26;;;;;;;8.95;5.82;;;13.30;99.90;;;;;;5112259;28;20135;-45
2022/07/02 04:42:52;;;;;;;7.75;5.78;;;13.30;99.90;;;;;;5111837;28;20084;-45
2022/07/02 04:45:17;;;;;;;8.88;5.97;;;13.40;99.90;;;;;;5111718;28;20071;-47
2022/07/02 04:47:43;;;;;;;7.57;5.88;;;13.50;99.90;;;;;;5093399;28;20071;-45
2022/07/02 04:50:09;;;;;;;8.25;6.25;;;13.40;99.90;;;;;;5093053;28;20039;-48
2022/07/02 04:52:35;;;;;;;6.72;5.47;;;13.50;99.90;;;;;;5111830;28;20043;-45
2022/07/02 04:55:00;;;;;;;8.20;5.78;;;13.50;99.90;;;;;;5111879;28;20435;-48
2022/07/02 04:57:26;;;;;;;7.85;5.93;;;13.50;99.90;;;;;;5111721;28;20035;-48
2022/07/02 04:59:52;;;;;;;7.45;6.03;;;13.60;99.90;;;;;;5111859;28;20100;-44
2022/07/02 05:02:18;;;;;;;8.02;5.72;;;13.60;99.90;;;;;;5111785;28;20031;-45
2022/07/02 05:04:44;;;;;;;10.27;5.75;;;13.70;99.90;;;;;;5111131;28;20052;-45
2022/07/02 05:07:10;;;;;;;9.25;5.75;;;13.60;99.90;;;;;;5111475;27;20046;-44
2022/07/02 05:09:35;;;;;;;7.25;5.70;;;13.70;99.90;;;;;;5111918;28;20474;-47
2022/07/02 05:12:02;;;;;;;7.88;5.47;;;13.80;99.90;;;;;;5111466;28;20039;-48
2022/07/02 05:14:28;;;;;;;8.20;5.93;;;13.90;99.90;;;;;;5111126;28;20058;-47
2022/07/02 05:16:54;;;;;;;9.65;5.68;;;13.90;99.90;;;;;;5093049;28;20065;-45
2022/07/02 05:19:19;;;;;;;8.98;5.72;;;13.90;99.90;;;;;;5111297;28;20478;-45
2022/07/02 05:21:45;;;;;;;9.32;5.93;;;14.00;99.90;;;;;;5111171;28;20036;-49
2022/07/02 05:24:10;;;;;;;7.60;5.57;;;14.00;99.90;;;;;;5110815;28;20031;-48
2022/07/02 05:26:36;;;;;;;6.32;5.03;;;14.00;99.90;;;;;;5092537;28;20078;-47
2022/07/02 05:29:03;;;;;;;6.97;5.70;;;14.10;99.90;;;;;;5111203;28;20096;-46
2022/07/02 05:31:29;;;;;;;8.63;5.13;;;14.20;99.90;;;;;;5111003;28;20039;-49
2022/07/02 05:33:55;;;;;;;7.43;5.03;;;14.30;99.90;;;;;;5111041;28;20061;-48
2022/07/02 05:36:20;;;;;;;7.07;5.22;;;14.30;99.90;;;;;;5109524;27;20043;-47
2022/07/02 05:38:46;;;;;;;7.13;5.20;;;14.30;99.90;;;;;;5110854;28;20508;-47
2022/07/02 05:41:11;;;;;;;8.30;5.15;;;14.40;99.90;;;;;;5110689;27;20074;-49
2022/07/02 05:43:37;;;;;;;6.88;4.80;;;14.40;99.90;;;;;;5092661;28;20040;-45
2022/07/02 05:46:03;;;;;;;7.57;4.78;;;14.50;99.90;;;;;;5108991;27;20031;-45
2022/07/02 05:48:29;;;;;;;6.43;4.07;;;14.50;99.90;;;;;;5112804;27;20031;-45
2022/07/02 05:50:54;;;;;;;7.50;3.47;;;14.70;99.90;;;;;;5131468;27;20079;-44
2022/07/02 05:53:20;;;;;;;6.22;3.72;;;14.70;99.90;;;;;;5131110;27;20031;-47
2022/07/02 05:55:45;;;;;;;6.30;3.13;;;14.90;99.90;;;;;;5130902;27;20035;-46
2022/07/02 05:58:12;;;;;;;5.18;3.10;;;15.00;99.90;;;;;;5131303;27;20165;-43
2022/07/02 06:00:38;;;;;;;5.82;2.95;;;15.00;99.90;;;;;;5131192;27;20556;-47
2022/07/02 06:03:04;;;;;;;4.72;2.55;;;15.10;99.90;;;;;;5130940;27;20497;-44
2022/07/02 06:08:14;;;;;;;4.88;2.83;;;15.30;99.90;;;;;;5130491;27;20073;-50
2022/07/02 06:10:40;;;;;;;4.93;2.35;;;15.40;99.90;;;;;;5131227;27;20031;-47
2022/07/02 06:13:06;;;;;;;4.72;2.45;;;15.50;99.90;;;;;;5113782;28;20036;-46
2022/07/02 06:15:32;;;;;;;5.68;2.05;;;15.60;99.90;;;;;;5109732;28;20036;-47
2022/07/02 06:18:01;;;;;;;3.60;1.77;;;15.60;99.90;;;;;;5099821;28;20043;-47
2022/07/02 06:20:27;;;;;;;3.95;2.00;;;15.70;99.90;;;;;;5076948;28;20047;-46
2022/07/02 06:22:53;;;;;;;5.28;1.80;;;15.80;99.90;;;;;;5079468;28;20452;-47
2022/07/02 06:25:19;;;;;;;4.18;1.73;;;15.80;99.90;;;;;;5076784;28;20032;-46
2022/07/02 06:27:45;;;;;;;3.28;1.42;;;15.90;99.90;;;;;;5097991;28;20042;-44
2022/07/02 06:30:11;;;;;;;6.10;1.63;;;15.80;99.90;;;;;;5097525;28;20023;-47
2022/07/02 06:32:37;;;;;;;4.93;1.92;;;15.80;99.90;;;;;;5097658;28;20043;-50
2022/07/02 06:35:03;;;;;;;3.13;1.40;;;15.90;99.90;;;;;;5098064;28;20031;-46
2022/07/02 06:37:29;;;;;;;4.60;1.50;;;15.90;99.90;;;;;;5097765;28;20035;-45
2022/07/02 06:39:55;;;;;;;3.38;1.60;;;15.90;99.90;;;;;;5080868;28;20513;-43
2022/07/02 06:42:26;;;;;;;4.47;1.67;;;16.00;99.90;;;;;;5097423;28;21101;-47
2022/07/02 06:44:53;;;;;;;5.60;1.70;;;16.00;99.90;;;;;;5097363;28;20474;-46
2022/07/02 06:47:20;;;;;;;5.47;1.75;;;16.00;99.90;;;;;;5096818;28;20053;-45
2022/07/02 06:49:45;;;;;;;4.00;1.80;;;16.10;99.90;;;;;;5096208;28;20075;-46
2022/07/02 06:52:12;;;;;;;4.07;1.67;;;16.10;99.90;;;;;;5098244;28;20044;-44
2022/07/02 06:54:38;;;;;;;4.50;1.65;;;16.20;99.90;;;;;;5078746;28;20129;-46
2022/07/02 06:57:05;;;;;;;5.60;2.03;;;16.20;99.90;;;;;;5096778;28;20040;-49
2022/07/02 06:59:31;;;;;;;5.13;1.95;;;16.20;99.90;;;;;;5097356;28;20078;-46
2022/07/02 07:01:57;;;;;;;4.90;1.75;;;16.30;99.90;;;;;;5097571;28;20087;-47
2022/07/02 07:04:23;;;;;;;3.58;1.70;;;16.30;99.90;;;;;;5074954;28;20143;-47
2022/07/02 07:06:53;;;;;;;4.20;1.70;;;16.30;99.90;;;;;;5090332;28;20031;-49
2022/07/02 07:09:19;;;;;;;3.65;1.85;;;16.40;99.90;;;;;;5097514;28;20556;-47
2022/07/02 07:11:45;;;;;;;3.78;1.73;;;16.50;99.90;;;;;;5096548;28;20043;-47
2022/07/02 07:14:10;;;;;;;3.42;1.70;;;16.50;99.90;;;;;;5097149;28;20088;-44
2022/07/02 07:16:36;;;;;;;4.00;1.70;;;16.60;99.90;;;;;;5097401;28;20055;-50
2022/07/02 07:19:05;;;;;;;4.65;1.80;;;16.60;99.90;;;;;;5096333;28;20397;-47
2022/07/02 07:21:36;;;;;;;3.95;1.60;;;16.60;99.90;;;;;;5099936;28;20448;-47
2022/07/02 07:24:02;;;;;;;3.50;1.27;;;16.80;99.90;;;;;;5100645;28;20034;-48
2022/07/02 07:26:28;;;;;;;3.20;1.15;;;16.90;99.90;;;;;;5101277;28;20031;-46
2022/07/02 07:28:54;;;;;;;2.88;1.00;;;16.90;99.90;;;;;;5100719;28;20040;-48
2022/07/02 07:31:22;;;;;;;4.00;1.00;;;17.00;99.90;;;;;;5101040;27;20043;-47
2022/07/02 07:33:49;;;;;;;3.33;1.20;;;17.20;99.90;;;;;;5100855;28;20543;-46
2022/07/02 07:36:16;;;;;;;3.63;1.10;;;17.20;99.90;;;;;;5100720;28;20031;-49
2022/07/02 07:38:42;;;;;;;3.13;1.27;;;17.20;99.90;;;;;;5100500;28;20048;-48
2022/07/02 07:41:07;;;;;;;2.15;1.00;;;17.30;99.90;;;;;;5100617;28;20032;-51
2022/07/02 07:43:33;;;;;;;2.60;1.00;;;17.40;99.90;;;;;;5099706;28;20157;-45
2022/07/02 07:45:59;;;;;;;2.60;1.00;;;17.50;99.90;;;;;;5099610;28;20042;-49
2022/07/02 07:48:25;;;;;;;4.63;1.20;;;17.50;99.90;;;;;;5100700;28;20063;-46
2022/07/02 07:50:50;;;;;;;4.22;0.93;;;17.60;99.90;;;;;;5100732;28;20505;-46
2022/07/02 07:53:16;;;;;;;2.20;0.90;;;17.60;99.90;;;;;;5099693;28;20371;-49
2022/07/02 07:55:42;;;;;;;2.22;0.80;;;17.70;99.90;;;;;;5100164;27;20038;-47
2022/07/02 07:58:08;;;;;;;1.58;0.80;;;17.70;99.90;;;;;;5100343;27;20039;-50
2022/07/02 08:00:34;;;;;;;4.93;0.77;;;17.70;99.90;;;;;;5100927;28;20043;-50
2022/07/02 08:02:59;;;;;;;2.30;0.90;;;17.80;99.90;;;;;;5097571;28;20076;-48
2022/07/02 08:05:25;;;;;;;2.63;0.95;;;17.90;99.90;;;;;;5099106;28;20028;-46
2022/07/02 08:07:51;;;;;;;1.15;0.60;;;17.90;99.90;;;;;;5099719;28;20409;-47
2022/07/02 08:10:17;;;;;;;1.67;0.80;;;18.00;99.90;;;;;;5098513;28;20035;-49
2022/07/02 08:12:43;;;;;;;2.05;0.90;;;18.00;99.90;;;;;;5099876;28;20036;-48
2022/07/02 08:15:09;;;;;;;1.67;0.80;;;18.00;99.90;;;;;;5099876;28;20478;-47
2022/07/02 08:17:36;;;;;;;3.17;0.88;;;18.10;99.90;;;;;;5099938;28;20517;-50
2022/07/02 08:20:04;;;;;;;2.35;0.80;;;18.20;99.90;;;;;;5099563;28;20082;-49
2022/07/02 08:22:31;;;;;;;2.63;1.00;;;18.30;99.90;;;;;;5099920;28;20513;-48
2022/07/02 08:24:58;;;;;;;1.85;0.70;;;18.40;99.90;;;;;;5099679;28;20031;-50
2022/07/02 08:27:23;;;;;;;2.08;0.50;;;18.40;99.90;;;;;;5099410;28;20058;-50
2022/07/02 08:29:49;;;;;;;1.55;0.50;;;18.60;99.90;;;;;;5099120;28;20039;-49
2022/07/02 08:32:15;;;;;;;1.80;0.65;;;18.70;99.90;;;;;;5099029;28;20028;-47
2022/07/02 08:34:41;;;;;;;1.35;0.50;;;18.70;99.90;;;;;;5098975;28;20100;-46
2022/07/02 08:37:07;;;;;;;1.63;0.50;;;18.80;99.90;;;;;;5097224;28;20092;-47
2022/07/02 08:39:32;;;;;;;1.98;0.32;;;18.70;99.90;;;;;;5076906;28;20051;-47
2022/07/02 08:42:00;;;;;;;1.00;0.50;;;18.70;99.90;;;;;;5097294;27;20071;-48
2022/07/02 08:44:27;;;;;;;1.98;0.50;;;18.90;99.90;;;;;;5096904;28;20038;-48
2022/07/02 08:46:53;;;;;;;1.55;0.50;;;19.00;99.90;;;;;;5096999;28;20100;-48
2022/07/02 08:49:20;;;;;;;1.70;0.63;;;19.10;99.90;;;;;;5096312;28;20043;-49
2022/07/02 08:54:22;;;;;;;1.40;0.40;;;19.20;99.90;;;;;;5097425;27;20044;-50
2022/07/02 08:56:50;;;;;;;1.70;0.70;;;19.30;99.90;;;;;;5096940;28;20038;-46
2022/07/02 08:59:17;;;;;;;0.98;0.30;;;19.50;99.90;;;;;;5096322;28;20040;-47
2022/07/02 09:01:45;;;;;;;1.73;0.50;;;19.50;99.90;;;;;;5096818;28;20114;-48
2022/07/02 09:04:14;;;;;;;1.08;0.40;;;19.60;99.90;;;;;;5096492;28;20054;-47
2022/07/02 09:06:41;;;;;;;1.10;0.40;;;19.80;99.90;;;;;;5096958;28;20031;-47
2022/07/02 09:09:08;;;;;;;0.95;0.30;;;19.70;99.90;;;;;;5077396;28;20040;-46
2022/07/02 09:11:34;;;;;;;1.88;0.52;;;20.00;99.90;;;;;;5097036;28;20054;-45
2022/07/02 09:14:00;;;;;;;0.80;0.30;;;20.10;99.90;;;;;;5097146;28;20470;-47
2022/07/02 09:16:26;;;;;;;1.42;0.30;;;20.50;99.90;;;;;;5096077;28;20039;-49
2022/07/02 09:18:51;;;;;;;0.63;0.20;;;20.60;99.90;;;;;;5077836;28;24866;-50
2022/07/02 09:21:17;;;;;;;1.98;0.40;;;20.70;99.90;;;;;;5096487;28;20123;-47
2022/07/02 09:23:47;;;;;;;0.77;0.25;;;20.90;99.90;;;;;;5096716;28;20402;-48
2022/07/02 09:26:20;;;;;;;1.73;0.30;;;21.00;99.80;;;;;;5095928;28;20402;-48
2022/07/02 09:29:00;;;;;;;0.80;0.30;;;21.00;98.30;;;;;;5096256;28;20517;-50
2022/07/02 09:31:27;;;;;;;0.95;0.30;;;21.20;98.30;;;;;;5096818;28;20039;-50
2022/07/02 09:33:54;;;;;;;2.05;0.40;;;21.30;98.00;;;;;;5096651;27;20047;-49
2022/07/02 09:36:21;;;;;;;1.00;0.30;;;21.20;98.30;;;;;;5077378;28;20039;-44
2022/07/02 09:38:49;;;;;;;0.77;0.30;;;21.30;97.50;;;;;;5096856;28;20035;-48
2022/07/02 09:41:21;;;;;;;3.17;0.40;;;21.40;96.30;;;;;;5095451;28;20032;-48
2022/07/02 09:44:00;;;;;;;0.70;0.20;;;21.60;97.10;;;;;;5096426;27;20392;-48
2022/07/02 09:46:29;;;;;;;0.85;0.25;;;21.70;96.60;;;;;;5095549;28;20043;-51
2022/07/02 09:49:08;;;;;;;1.13;0.35;;;21.80;96.10;;;;;;5095890;28;20035;-48
2022/07/02 09:51:44;;;;;;;3.10;0.40;;;21.90;95.20;;;;;;5096079;28;20076;-49
2022/07/02 09:54:09;;;;;;;1.70;0.30;;;21.90;95.10;;;;;;5097539;27;20032;-47
2022/07/02 09:56:35;;;;;;;1.80;0.40;;;22.00;97.20;;;;;;5098304;28;20055;-49
2022/07/02 09:59:01;;;;;;;1.13;0.40;;;22.20;97.00;;;;;;5098478;28;20496;-50
2022/07/02 10:01:26;;;;;;;1.02;0.22;;;22.20;95.90;;;;;;5097129;28;20429;-46
2022/07/02 10:03:54;;;;;;;0.63;0.30;;;22.10;95.10;;;;;;5097901;28;20055;-51
2022/07/02 10:06:20;;;;;;;2.67;0.30;;;22.10;94.10;;;;;;5098212;28;20044;-48
2022/07/02 10:08:48;;;;;;;1.45;0.30;;;22.20;95.40;;;;;;5097923;28;20116;-48
2022/07/02 10:11:15;;;;;;;0.63;0.20;;;22.30;96.10;;;;;;5098674;28;20032;-50
2022/07/02 10:13:42;;;;;;;1.13;0.30;;;22.20;94.80;;;;;;5097835;28;20047;-49
2022/07/02 10:16:15;;;;;;;0.93;0.25;;;22.40;94.00;;;;;;5106058;28;20031;-51
2022/07/02 10:18:45;;;;;;;1.00;0.30;;;22.30;94.50;;;;;;5106743;28;20035;-48
2022/07/02 10:21:15;;;;;;;1.10;0.38;;;22.30;95.40;;;;;;5104932;28;20035;-51
2022/07/02 10:23:45;;;;;;;3.08;0.30;;;22.50;94.30;;;;;;5102503;28;20533;-49
2022/07/02 10:26:12;;;;;;;1.17;0.40;;;22.40;92.60;;;;;;5083026;28;20040;-49
2022/07/02 10:28:38;;;;;;;1.50;0.30;;;22.60;95.30;;;;;;5105776;28;20036;-50
2022/07/02 10:31:06;;;;;;;0.63;0.22;;;22.80;95.40;;;;;;5102414;28;20592;-49
2022/07/02 10:33:41;;;;;;;1.05;0.38;;;22.80;94.60;;;;;;5102119;28;20096;-47
2022/07/02 10:36:11;;;;;;;0.80;0.30;;;22.70;93.10;;;;;;5103820;28;20099;-52
2022/07/02 10:38:38;;;;;;;0.65;0.30;;;22.70;92.90;;;;;;5100964;28;20728;-48
2022/07/02 10:41:05;;;;;;;0.70;0.30;;;22.70;92.10;;;;;;5104255;28;20035;-49
2022/07/02 10:43:35;;;;;;;1.50;0.35;;;22.80;94.70;;;;;;5099274;28;20027;-51
2022/07/02 10:46:16;;;;;;;2.47;0.60;;;22.70;94.00;;;;;;5098007;28;20394;-48
2022/07/02 10:48:53;;;;;;;2.13;0.40;;;22.90;94.40;;;;;;5099924;28;20103;-52
2022/07/02 10:51:28;;;;;;;0.68;0.22;;;23.20;93.60;;;;;;5097375;28;20047;-51
2022/07/02 10:53:59;;;;;;;1.27;0.30;;;23.30;93.10;;;;;;5100985;28;20048;-50
2022/07/02 10:56:26;;;;;;;1.13;0.30;;;23.20;92.50;;;;;;5090329;28;20036;-51
2022/07/02 10:58:52;;;;;;;1.85;0.63;;;23.10;92.80;;;;;;5070148;28;20046;-52
2022/07/02 11:01:22;;;;;;;4.07;0.50;;;23.10;94.00;;;;;;5084917;28;20134;-51
2022/07/02 11:04:01;;;;;;;0.68;0.22;;;23.20;93.50;;;;;;5100537;28;20052;-50
2022/07/02 11:06:31;;;;;;;1.67;0.50;;;23.50;93.10;;;;;;5094748;28;20039;-47
2022/07/02 11:08:58;;;;;;;1.45;0.40;;;23.60;94.50;;;;;;5096722;27;20035;-50
2022/07/02 11:11:36;;;;;;;1.02;0.38;;;23.60;92.60;;;;;;5095646;28;20595;-52
2022/07/02 11:14:05;;;;;;;2.45;0.40;;;23.90;92.60;;;;;;5096362;28;20510;-49
2022/07/02 11:16:40;;;;;;;1.48;0.40;;;23.80;94.40;;;;;;5095807;27;20070;-51
2022/07/02 11:19:15;;;;;;;1.40;0.30;;;23.80;92.70;;;;;;5098388;28;20040;-52
2022/07/02 11:21:41;;;;;;;1.25;0.20;;;23.80;92.50;;;;;;5098453;27;20080;-49
2022/07/02 11:24:07;;;;;;;1.23;0.35;;;23.60;92.00;;;;;;5100941;28;20501;-50
2022/07/02 11:26:33;;;;;;;1.45;0.30;;;23.70;93.90;;;;;;5097883;28;20153;-49
2022/07/02 11:29:04;;;;;;;1.67;0.30;;;23.70;92.00;;;;;;5101444;27;20530;-51
2022/07/02 11:31:31;;;;;;;1.60;0.40;;;23.70;91.10;;;;;;5097920;28;20395;-48
2022/07/02 11:33:57;;;;;;;1.83;0.43;;;23.70;92.50;;;;;;5102343;28;20036;-49
2022/07/02 11:36:24;;;;;;;1.95;0.38;;;24.00;92.60;;;;;;5097854;27;20051;-50
2022/07/02 11:38:51;;;;;;;0.93;0.25;;;24.00;92.70;;;;;;5099648;27;20478;-49
2022/07/02 11:41:22;;;;;;;2.63;0.45;;;24.10;91.50;;;;;;5099869;28;20208;-50
2022/07/02 11:43:54;;;;;;;0.85;0.20;;;24.00;91.70;;;;;;5101931;28;20039;-52
2022/07/02 11:46:23;;;;;;;2.80;0.50;;;23.70;91.80;;;;;;5099187;28;20059;-47
2022/07/02 11:48:50;;;;;;;0.75;0.13;;;23.50;92.10;;;;;;5080631;28;20113;-46
2022/07/02 11:51:19;;;;;;;1.75;0.50;;;23.50;93.00;;;;;;5079491;28;20039;-48
2022/07/02 11:54:04;;;;;;;1.45;0.43;;;23.60;93.30;;;;;;5097119;27;20050;-48
2022/07/02 11:56:33;;;;;;;1.08;0.40;;;23.20;92.20;;;;;;5098738;28;20044;-47
2022/07/02 11:58:58;;;;;;;1.10;0.30;;;23.00;92.90;;;;;;5095510;27;20048;-49
2022/07/02 12:01:29;;;;;;;0.68;0.20;;;23.10;93.10;;;;;;5099469;27;20040;-49
2022/07/02 12:03:57;;;;;;;1.70;0.47;;;23.10;93.80;;;;;;5101222;27;20511;-50
2022/07/02 12:06:28;;;;;;;1.77;0.38;;;23.10;93.20;;;;;;5110126;27;20363;-50
2022/07/02 12:08:55;;;;;;;2.67;0.50;;;23.00;93.70;;;;;;5108939;28;20067;-47
2022/07/02 12:11:22;;;;;;;1.50;0.50;;;23.00;92.50;;;;;;5099673;27;20537;-47
2022/07/02 12:13:49;;;;;;;3.45;0.73;;;22.80;92.70;;;;;;5111380;27;20031;-47
2022/07/02 12:16:23;;;;;;;1.30;0.40;;;22.80;92.30;;;;;;5112178;28;20400;-50
2022/07/02 12:19:06;;;;;;;2.65;0.43;;;22.80;92.70;;;;;;5111905;28;20042;-51
2022/07/02 12:21:37;;;;;;;0.97;0.30;;;23.00;94.50;;;;;;5111954;28;20417;-48
2022/07/02 12:24:18;;;;;;;1.90;0.40;;;22.90;94.20;;;;;;5111868;28;20277;-47
2022/07/02 12:26:44;;;;;;;1.50;0.40;;;22.70;93.90;;;;;;5110699;28;20054;-48
2022/07/02 12:32:04;;;;;;;1.90;0.40;;;22.80;94.70;;;;;;5112053;28;20055;-49
2022/07/02 12:34:40;;;;;;;1.85;0.40;;;22.80;95.00;;;;;;5093942;28;20050;-48
2022/07/02 12:37:06;;;;;;;1.65;0.30;;;22.80;93.40;;;;;;5112062;27;20050;-46
2022/07/02 12:39:41;;;;;;;1.35;0.35;;;22.70;94.10;;;;;;5111589;27;20092;-49
2022/07/02 12:42:20;;;;;;;2.33;0.38;;;22.90;94.40;;;;;;5112202;28;20036;-49
2022/07/02 12:44:57;;;;;;;1.38;0.30;;;22.90;94.10;;;;;;5111320;27;20036;-50
2022/07/02 12:47:23;;;;;;;2.15;0.38;;;23.10;95.30;;;;;;5111776;27;20050;-49
2022/07/02 12:49:55;;;;;;;2.25;0.40;;;23.00;94.90;;;;;;5111298;28;20035;-50
2022/07/02 12:52:21;;;;;;;1.40;0.47;;;23.00;93.80;;;;;;5111977;28;20035;-51
2022/07/02 12:54:46;;;;;;;2.92;0.50;;;22.90;93.30;;;;;;5111680;28;20621;-51
2022/07/02 12:57:16;;;;;;;1.17;0.40;;;23.10;93.70;;;;;;5112024;28;20039;-47